Data for 08/31/2018

Time Sea-Level Adjusted Pressure Absolute Pressure Temperature Relative Humidity Dew Point   
(mb) (inHg) (mb) (inHg) (C) (F) (%) (C) (F)
00:05 1017 30.03 846 24.98 12.6 54.7 56 4.1 39.4
00:10 1017 30.03 846 24.98 12.6 54.8 55 4 39.1
00:15 1017 30.03 846 24.98 12.7 54.8 55 4 39.1
00:20 1017 30.03 846 24.98 12.7 54.8 55 3.9 39
00:25 1017 30.03 846 24.98 12.6 54.7 56 4.2 39.5
00:30 1017 30.03 846 24.98 12.3 54.1 59 4.6 40.2
00:35 1017 30.03 846 24.98 11.8 53.2 60 4.3 39.7
00:40 1017 30.03 846 24.98 11.7 53.1 59 4.1 39.3
00:45 1017 30.03 846 24.98 11.8 53.3 58 3.8 38.8
00:50 1017 30.03 846 24.98 12.2 53.9 55 3.4 38.1
00:55 1017 30.03 846 24.98 12.4 54.3 56 4 39.2
01:00 1017 30.03 846 24.98 12.2 54 57 3.9 39.1
01:05 1017 30.03 846 24.98 12.1 53.8 58 4.1 39.4
01:10 1017 30.03 846 24.98 11.9 53.3 57 3.8 38.8
01:15 1017 30.03 846 24.98 11.9 53.4 58 4 39.3
01:20 1017 30.03 846 24.98 11.6 52.9 57 3.5 38.3
01:25 1017 30.03 846 24.98 11.8 53.3 58 3.8 38.8
01:30 1017 30.03 846 24.98 11.5 52.8 54 2.7 36.9
01:35 1017 30.03 846 24.98 12.1 53.9 55 3.5 38.2
01:40 1017 30.03 847 25.01 11.7 53.1 56 3.4 38.2
01:45 1017 30.03 846 24.98 11.4 52.6 57 3.4 38
01:50 1017 30.03 846 24.98 11.3 52.4 58 3.5 38.4
01:55 1017 30.03 846 24.98 11 51.8 60 3.5 38.4
02:00 1017 30.03 847 25.01 10.9 51.6 60 3.4 38.2
02:05 1017 30.03 847 25.01 10.8 51.4 59 3.1 37.6
02:10 1017 30.03 847 25.01 10.9 51.6 58 3.1 37.6
02:15 1017 30.03 847 25.01 11 51.8 57 2.9 37.2
02:20 1017 30.03 847 25.01 11.2 52.2 57 3 37.4
02:25 1017 30.03 847 25.01 11.4 52.6 55 2.7 36.9
02:30 1018 30.06 847 25.01 11.5 52.7 55 2.8 37
02:35 1018 30.06 847 25.01 11.6 52.8 53 2.5 36.4
02:40 1018 30.06 847 25.01 11.8 53.2 54 2.8 37
02:45 1018 30.06 847 25.01 11.8 53.2 54 2.7 36.9
02:50 1018 30.06 847 25.01 11.8 53.2 53 2.7 36.8
02:55 1018 30.06 847 25.01 11.9 53.5 54 2.9 37.3
03:00 1018 30.06 847 25.01 11.6 52.9 55 3 37.4
03:05 1018 30.06 847 25.01 11.6 52.8 53 2.4 36.3
03:10 1018 30.06 847 25.01 11.7 53.1 54 2.8 37
03:15 1018 30.06 847 25.01 11.6 53 55 3 37.5
03:20 1018 30.06 847 25.01 11.5 52.8 57 3.2 37.8
03:25 1018 30.06 847 25.01 11.3 52.3 57 3.1 37.5
03:30 1018 30.06 847 25.01 11.2 52.2 58 3.2 37.8
03:35 1018 30.06 847 25.01 11.1 52 58 3.2 37.7
03:40 1018 30.06 847 25.01 11 51.8 58 3.1 37.7
03:45 1018 30.06 847 25.01 11 51.9 59 3.4 38.1
03:50 1018 30.06 847 25.01 11 51.7 59 3.3 37.9
03:55 1018 30.06 847 25.01 11 51.9 59 3.4 38.1
04:00 1018 30.06 847 25.01 11.1 52 59 3.4 38.2
04:05 1018 30.06 848 25.04 11.2 52.2 59 3.5 38.3
04:10 1018 30.06 848 25.04 11.3 52.3 59 3.6 38.5
04:15 1018 30.06 848 25.04 11.3 52.3 58 3.5 38.2
04:20 1018 30.06 848 25.04 11.5 52.6 56 3.1 37.7
04:25 1018 30.06 848 25.04 11.7 53.1 55 3.1 37.7
04:30 1019 30.09 848 25.04 11.9 53.4 55 3.1 37.6
04:35 1019 30.09 848 25.04 12 53.5 55 3.2 37.7
04:40 1019 30.09 848 25.04 12 53.6 55 3.3 37.9
04:45 1019 30.09 848 25.04 12 53.6 54 2.9 37.3
04:50 1019 30.09 848 25.04 12.1 53.7 53 2.9 37.2
04:55 1019 30.09 848 25.04 12.1 53.7 54 3.1 37.7
05:00 1019 30.09 848 25.04 12 53.7 53 2.7 36.9
05:05 1019 30.09 848 25.04 12 53.6 52 2.6 36.7
05:10 1019 30.09 848 25.04 12 53.6 52 2.4 36.3
05:15 1019 30.09 848 25.04 12.1 53.8 52 2.6 36.8
05:20 1019 30.09 848 25.04 12.1 53.8 52 2.5 36.5
05:25 1019 30.09 848 25.04 12.1 53.9 51 2.4 36.4
05:30 1019 30.09 849 25.07 12.2 54 51 2.3 36.2
05:35 1019 30.09 849 25.07 12.2 54 51 2.4 36.2
05:40 1019 30.09 849 25.07 12.2 54 50 2.2 36
05:45 1020 30.12 849 25.07 12.2 54 50 2.1 35.7
05:50 1020 30.12 849 25.07 12.3 54.1 48 1.8 35.2
05:55 1020 30.12 849 25.07 12.4 54.3 48 1.8 35.2
06:00 1020 30.12 849 25.07 12.5 54.4 47 1.4 34.5
06:05 1020 30.12 849 25.07 12.6 54.8 45 1.2 34.2
06:10 1020 30.12 849 25.07 12.8 55 46 1.4 34.6
06:15 1020 30.12 849 25.07 12.8 55 46 1.6 34.9
06:20 1020 30.12 849 25.07 12.8 55 47 1.9 35.3
06:25 1020 30.12 849 25.07 12.5 54.5 49 2.3 36.1
06:30 1020 30.12 849 25.07 12.2 53.9 51 2.5 36.5
06:35 1020 30.12 849 25.07 12 53.7 53 2.7 36.9
06:40 1020 30.12 849 25.07 12 53.6 54 3.1 37.6
06:45 1020 30.12 849 25.07 11.9 53.4 55 3.2 37.8
06:50 1020 30.12 849 25.07 11.8 53.2 55 3.2 37.7
06:55 1020 30.12 849 25.07 11.7 53.1 56 3.3 37.9
07:00 1020 30.12 849 25.07 11.7 53 57 3.5 38.3
07:05 1020 30.12 849 25.07 11.8 53.3 55 3.2 37.7
07:10 1020 30.12 849 25.07 11.9 53.5 55 3.1 37.6
07:15 1020 30.12 849 25.07 12.3 54.1 54 3.3 37.9
07:20 1020 30.12 849 25.07 12.4 54.3 53 3.2 37.7
07:25 1020 30.12 849 25.07 12.6 54.6 53 3.3 37.9
07:30 1020 30.12 849 25.07 12.8 55 54 3.7 38.6
07:35 1020 30.12 849 25.07 12.6 54.7 54 3.7 38.7
07:40 1020 30.12 849 25.07 12.6 54.7 55 3.9 39.1
07:45 1020 30.12 849 25.07 12.6 54.8 56 4.1 39.4
07:50 1020 30.12 849 25.07 12.8 55.1 58 4.8 40.6
07:55 1020 30.12 849 25.07 13.1 55.5 58 4.9 40.9
08:00 1020 30.12 849 25.07 13.1 55.6 57 4.9 40.8
08:05 1020 30.12 850 25.1 13.1 55.7 55 4.3 39.8
08:10 1020 30.12 850 25.1 13.4 56 54 4.2 39.5
08:15 1020 30.12 850 25.1 13.5 56.3 54 4.4 39.8
08:20 1020 30.12 850 25.1 13.9 57 52 4.4 39.9
08:25 1020 30.12 850 25.1 14.4 57.9 50 4 39.3
08:30 1020 30.12 850 25.1 15.1 59.1 44 3 37.4
08:35 1020 30.12 850 25.1 15.7 60.3 42 3 37.5
08:40 1020 30.12 849 25.07 15.8 60.4 42 3.2 37.7
08:45 1020 30.12 849 25.07 16.2 61.1 35 0.9 33.6
08:50 1020 30.12 850 25.1 16.6 61.8 35 1 33.9
08:55 1020 30.12 850 25.1 16.3 61.4 35 1 33.8
09:00 1020 30.12 849 25.07 16.1 61 35 0.7 33.2
09:05 1020 30.12 849 25.07 16.4 61.6 33 0.4 32.6
09:10 1020 30.12 849 25.07 16.8 62.2 32 0 32
09:15 1020 30.12 849 25.07 17.3 63.2 31 -0 31.9
09:20 1020 30.12 849 25.07 17.4 63.4 32 0.6 33.2
09:25 1020 30.12 849 25.07 17.3 63.1 31 0.2 32.3
09:30 1020 30.12 849 25.07 17.4 63.3 30 -0 32
09:35 1020 30.12 849 25.07 17.3 63.2 31 0.1 32.2
09:40 1020 30.12 849 25.07 17.4 63.3 33 0.9 33.6
09:45 1020 30.12 849 25.07 17.9 64.2 30 0.2 32.4
09:50 1020 30.12 849 25.07 17.8 64 31 0.4 32.8
09:55 1020 30.12 849 25.07 17.9 64.2 30 0.3 32.5
10:00 1020 30.12 849 25.07 17.7 63.9 31 0.6 33
10:05 1020 30.12 849 25.07 17.9 64.2 32 1 33.8
10:10 1020 30.12 849 25.07 18.3 64.9 29 0.3 32.5
10:15 1020 30.12 849 25.07 18.6 65.6 31 1.3 34.3
10:20 1020 30.12 849 25.07 18.6 65.4 30 0.6 33.1
10:25 1020 30.12 849 25.07 18.8 65.8 29 0.6 33.1
10:30 1020 30.12 849 25.07 18.9 65.9 29 0.6 33
10:35 1020 30.12 849 25.07 18.7 65.7 30 0.7 33.3
10:40 1020 30.12 849 25.07 18.8 65.8 31 1.4 34.5
10:45 1020 30.12 849 25.07 19 66.2 30 1.1 33.9
10:50 1020 30.12 849 25.07 18.9 66 29 0.7 33.2
10:55 1020 30.12 849 25.07 19.1 66.5 30 1.1 34.1
11:00 1020 30.12 849 25.07 18.6 65.5 32 1.8 35.2
11:05 1019 30.09 849 25.07 18.7 65.6 30 0.9 33.7
11:10 1019 30.09 849 25.07 18.8 65.8 31 1.5 34.6
11:15 1019 30.09 849 25.07 18.1 64.7 30 0.6 33
11:20 1019 30.09 848 25.04 18.7 65.7 30 1 33.8
11:25 1019 30.09 848 25.04 19.2 66.6 29 0.8 33.4
11:30 1019 30.09 848 25.04 20 67.9 27 0.7 33.2
11:35 1019 30.09 848 25.04 20.5 68.9 28 1.5 34.8
11:40 1019 30.09 848 25.04 20.2 68.4 27 0.7 33.3
11:45 1019 30.09 848 25.04 20 68 29 1.5 34.7
11:50 1019 30.09 848 25.04 19.5 67.2 29 1.3 34.4
11:55 1019 30.09 848 25.04 20 68.1 28 0.9 33.7
12:00 1019 30.09 848 25.04 20.3 68.5 27 0.9 33.6
12:05 1019 30.09 848 25.04 20.7 69.2 27 1.4 34.5
12:10 1019 30.09 848 25.04 20.9 69.6 28 2 35.5
12:15 1019 30.09 848 25.04 20.5 68.9 29 2 35.6
12:20 1019 30.09 848 25.04 20.2 68.4 27 1 33.8
12:25 1019 30.09 848 25.04 19.6 67.3 30 1.7 35
12:30 1019 30.09 848 25.04 19.5 67.1 29 1.3 34.4
12:35 1019 30.09 848 25.04 19.8 67.6 28 0.9 33.6
12:40 1019 30.09 848 25.04 20.3 68.6 28 1.6 34.9
12:45 1018 30.06 848 25.04 20.6 69.1 28 1.8 35.3
12:50 1018 30.06 848 25.04 21 69.8 27 1.5 34.6
12:55 1018 30.06 848 25.04 21.1 70 29 2.5 36.4
13:00 1018 30.06 848 25.04 20.1 68.2 28 1.2 34.2
13:05 1018 30.06 848 25.04 19.7 67.5 29 1.4 34.5
13:10 1018 30.06 847 25.01 20.9 69.5 27 1.3 34.3
13:15 1018 30.06 847 25.01 21 69.8 27 1.6 34.9
13:20 1018 30.06 847 25.01 21.4 70.4 27 2 35.5
13:25 1018 30.06 847 25.01 20.4 68.8 29 2 35.7
13:30 1018 30.06 847 25.01 20.8 69.5 27 1.2 34.1
13:35 1018 30.06 847 25.01 21.6 70.8 26 1.6 35
13:40 1018 30.06 847 25.01 21.6 70.8 25 1.1 34
13:45 1018 30.06 847 25.01 21.9 71.3 26 1.6 34.9
13:50 1018 30.06 847 25.01 21.8 71.3 27 2 35.5
13:55 1018 30.06 847 25.01 22.1 71.8 25 1.6 34.8
14:00 1018 30.06 847 25.01 22.1 71.7 25 1.1 34
14:05 1018 30.06 847 25.01 21.7 71.1 27 2.1 35.8
14:10 1018 30.06 847 25.01 21.4 70.5 26 1.2 34.2
14:15 1018 30.06 847 25.01 21.8 71.2 26 1.4 34.5
14:20 1018 30.06 847 25.01 20.9 69.6 28 1.9 35.3
14:25 1018 30.06 847 25.01 21.3 70.4 26 1.2 34.2
14:30 1017 30.03 847 25.01 21.7 71.1 27 2.1 35.8
14:35 1017 30.03 847 25.01 21.1 70 26 0.8 33.5
14:40 1017 30.03 847 25.01 21.7 71 27 1.8 35.3
14:45 1017 30.03 847 25.01 21.9 71.4 27 2.1 35.8
14:50 1017 30.03 847 25.01 21.8 71.2 26 1.8 35.2
14:55 1017 30.03 847 25.01 22.1 71.8 24 0.7 33.2
15:00 1017 30.03 846 24.98 21.9 71.5 28 2.6 36.6
15:05 1017 30.03 846 24.98 22.2 71.9 25 1.5 34.6
15:10 1017 30.03 846 24.98 22.2 71.9 26 1.9 35.5
15:15 1017 30.03 846 24.98 22.1 71.7 26 2 35.6
15:20 1017 30.03 846 24.98 21.6 70.8 27 2.2 36
15:25 1017 30.03 846 24.98 21.7 71.1 24 0.7 33.3
15:30 1017 30.03 846 24.98 22.2 72 25 1.5 34.8
15:35 1017 30.03 846 24.98 21.7 71.1 27 2 35.7
15:40 1017 30.03 846 24.98 21.4 70.6 26 1.2 34.2
15:45 1017 30.03 846 24.98 22.2 72 25 1.7 35.1
15:50 1017 30.03 846 24.98 22.4 72.2 25 1.5 34.6
15:55 1017 30.03 846 24.98 21.9 71.3 27 2.2 35.9
16:00 1017 30.03 846 24.98 22.3 72.1 26 1.8 35.2
16:05 1017 30.03 846 24.98 21.7 71.1 27 2 35.7
16:10 1017 30.03 846 24.98 21.9 71.5 24 0.7 33.3
16:15 1017 30.03 846 24.98 23 73.4 24 1.4 34.5
16:20 1017 30.03 846 24.98 23.5 74.3 23 1.5 34.7
16:25 1017 30.03 846 24.98 23.4 74 23 1.3 34.4
16:30 1017 30.03 846 24.98 22.4 72.2 25 1.7 35.1
16:35 1017 30.03 846 24.98 21.5 70.7 26 1.6 35
16:40 1017 30.03 846 24.98 21.8 71.2 26 1.4 34.5
16:45 1017 30.03 846 24.98 22.1 71.8 24 1 33.9
16:50 1017 30.03 846 24.98 22 71.6 25 1.4 34.6
16:55 1017 30.03 846 24.98 22.6 72.6 24 1.1 33.9
17:00 1017 30.03 846 24.98 22.3 72.1 24 1.2 34.1
17:05 1017 30.03 846 24.98 21.9 71.5 25 1 33.7
17:10 1017 30.03 846 24.98 22.3 72.1 25 1.7 35
17:15 1017 30.03 846 24.98 22.4 72.3 25 1.7 35
17:20 1017 30.03 846 24.98 22.1 71.8 24 0.8 33.5
17:25 1017 30.03 846 24.98 21.7 71.1 25 1.2 34.2
17:30 1017 30.03 846 24.98 21.3 70.3 26 1.2 34.1
17:35 1017 30.03 846 24.98 21.5 70.7 26 1.5 34.7
17:40 1017 30.03 846 24.98 21.6 70.9 24 0.5 33
17:45 1017 30.03 846 24.98 21.4 70.4 25 0.7 33.3
17:50 1017 30.03 846 24.98 21.2 70.1 26 1 33.7
17:55 1017 30.03 846 24.98 21.1 70.1 27 1.5 34.7
18:00 1017 30.03 846 24.98 21.2 70.2 28 2 35.5
18:05 1017 30.03 846 24.98 21.3 70.3 27 1.6 34.8
18:10 1017 30.03 846 24.98 21.3 70.3 26 1.1 34
18:15 1017 30.03 846 24.98 21.2 70.1 25 0.8 33.5
18:20 1017 30.03 846 24.98 20.9 69.7 28 1.9 35.5
18:25 1017 30.03 846 24.98 20.6 69 30 2.8 37
18:30 1017 30.03 846 24.98 20.4 68.6 31 2.9 37.1
18:35 1017 30.03 846 24.98 20.2 68.4 31 2.9 37.2
18:40 1017 30.03 846 24.98 20 68.1 33 3.5 38.4
18:45 1017 30.03 846 24.98 19.8 67.6 35 4.1 39.4
18:50 1017 30.03 846 24.98 19.6 67.3 37 4.6 40.3
18:55 1017 30.03 846 24.98 19.1 66.3 38 4.6 40.3
19:00 1017 30.03 846 24.98 18.8 65.8 38 4.4 39.9
19:05 1017 30.03 846 24.98 18.5 65.2 40 4.9 40.8
19:10 1017 30.03 846 24.98 18.2 64.7 42 5 41.1
19:15 1017 30.03 846 24.98 17.7 63.9 42 4.8 40.6
19:20 1017 30.03 846 24.98 17.3 63.2 43 4.7 40.4
19:25 1017 30.03 846 24.98 17.1 62.8 43 4.6 40.3
19:30 1017 30.03 846 24.98 16.8 62.2 45 4.8 40.6
19:35 1017 30.03 846 24.98 16.5 61.7 45 4.8 40.6
19:40 1017 30.03 846 24.98 16.3 61.3 46 4.8 40.6
19:45 1017 30.03 846 24.98 16 60.7 47 4.9 40.8
19:50 1017 30.03 846 24.98 15.8 60.4 48 4.8 40.7
19:55 1017 30.03 846 24.98 15.6 60.1 48 4.7 40.5
20:00 1017 30.03 846 24.98 15.4 59.7 49 4.8 40.6
20:05 1017 30.03 847 25.01 15.2 59.3 50 4.8 40.7
20:10 1017 30.03 847 25.01 14.9 58.9 50 4.8 40.7
20:15 1017 30.03 847 25.01 14.8 58.6 51 4.9 40.8
20:20 1017 30.03 847 25.01 14.5 58 52 4.8 40.6
20:25 1018 30.06 847 25.01 14.3 57.8 52 4.7 40.5
20:30 1018 30.06 847 25.01 14 57.2 53 4.8 40.6
20:35 1018 30.06 847 25.01 13.7 56.7 54 4.7 40.5
20:40 1018 30.06 847 25.01 13.5 56.3 53 4.1 39.4
20:45 1018 30.06 847 25.01 13.5 56.2 51 3.6 38.5
20:50 1018 30.06 847 25.01 13.7 56.7 49 3.4 38.1
20:55 1018 30.06 847 25.01 13.8 56.9 49 3.3 38
21:00 1018 30.06 847 25.01 13.8 56.9 50 3.5 38.4
21:05 1018 30.06 847 25.01 13.7 56.7 50 3.6 38.5
21:10 1018 30.06 847 25.01 13.4 56.2 51 3.6 38.5
21:15 1018 30.06 847 25.01 13.2 55.8 51 3.4 38.2
21:20 1018 30.06 847 25.01 13.3 55.9 50 3.2 37.7
21:25 1018 30.06 847 25.01 13.4 56 50 3.1 37.6
21:30 1018 30.06 847 25.01 13.4 56.2 48 2.9 37.1
21:35 1018 30.06 847 25.01 13.6 56.5 48 2.8 37
21:40 1018 30.06 847 25.01 13.6 56.4 49 3 37.4
21:45 1018 30.06 847 25.01 13.4 56.2 48 2.6 36.8
21:50 1018 30.06 847 25.01 13.7 56.7 47 2.8 37
21:55 1018 30.06 847 25.01 13.7 56.6 48 2.9 37.3
22:00 1018 30.06 847 25.01 13.5 56.2 49 2.9 37.3
22:05 1018 30.06 847 25.01 13 55.5 50 3 37.3
22:10 1018 30.06 847 25.01 12.7 54.9 52 3.3 37.9
22:15 1018 30.06 847 25.01 12.8 55 52 3.1 37.6
22:20 1018 30.06 847 25.01 13 55.4 51 3.2 37.8
22:25 1018 30.06 847 25.01 13 55.5 51 3.3 37.9
22:30 1018 30.06 847 25.01 13.1 55.5 51 3.2 37.7
22:35 1018 30.06 847 25.01 12.9 55.3 53 3.6 38.5
22:40 1018 30.06 847 25.01 12.6 54.7 53 3.5 38.3
22:45 1018 30.06 847 25.01 12.3 54.1 56 3.8 38.8
22:50 1018 30.06 847 25.01 11.6 52.9 58 3.8 38.8
22:55 1018 30.06 847 25.01 11.2 52.1 59 3.5 38.3
23:00 1018 30.06 847 25.01 11.2 52.1 57 3 37.5
23:05 1018 30.06 847 25.01 11.2 52.2 58 3.2 37.8
23:10 1018 30.06 847 25.01 11 51.9 58 3.2 37.7
23:15 1018 30.06 847 25.01 10.9 51.6 60 3.4 38.2
23:20 1018 30.06 847 25.01 10.7 51.3 58 2.9 37.2
23:25 1018 30.06 847 25.01 11.4 52.4 51 1.6 34.8
23:30 1018 30.06 848 25.04 12.1 53.8 49 1.8 35.3
23:35 1018 30.06 848 25.04 12.4 54.2 49 2.1 35.8
23:40 1018 30.06 848 25.04 12.2 54 50 2.1 35.8
23:45 1018 30.06 848 25.04 12 53.7 52 2.6 36.7
23:50 1018 30.06 848 25.04 11.6 52.9 52 2.2 36
23:55 1018 30.06 848 25.04 11.5 52.6 54 2.6 36.6
24:00 1018 30.06 848 25.04 11.1 51.9 55 2.5 36.5